Eurocargo Salerno — 9HA3534 — position and weather

sailwx.info

Track history (hours):
 
Tides and Currents Weather Stations Pressure Air Temp Water Temp Dewpoint Dewpoint Depression Visibility Wind Speed Wind Dir Waves Ship Positions

Eurocargo Salerno

Last reported at 2017-Oct-18 22:30 UTC. Time now 2017-Oct-18 22:42 UTC.
Position N 43°54' E 009°10'.

Length 195 m; draft 6.1 m.

Type: Cargo ship. MMSI: 229706000.

Date/timePositionNaut miles runAvg speedWind from/ knotsBaromVisibWave heightAir tempDewpointWater temp
2017-Oct-18 22:30N 43°54' E 009°10'816.6
2017-Oct-18 22:00N 44°02' E 009°06'816.9
2017-Oct-18 21:30N 44°10' E 009°02'816.9
2017-Oct-18 21:00N 44°18' E 008°59'713.0
2017-Oct-18 20:30N 44°24' E 008°55'2 3.0
2017-Oct-18 19:58N 44°24' E 008°53'0 0.0
2017-Oct-18 19:28N 44°24' E 008°53'0 0.0
2017-Oct-18 18:58N 44°24' E 008°53'0 0.0
2017-Oct-18 18:28N 44°24' E 008°53'0 0.0
2017-Oct-18 17:58N 44°24' E 008°53'0 0.0
2017-Oct-18 17:28N 44°24' E 008°53'0 0.0
2017-Oct-18 16:58N 44°24' E 008°53'0 0.1
2017-Oct-18 16:29N 44°24' E 008°53'0 0.1
2017-Oct-18 15:59N 44°24' E 008°53'0 0.0
2017-Oct-18 15:29N 44°24' E 008°53'0 0.0
2017-Oct-18 14:59N 44°24' E 008°53'0 0.0
2017-Oct-18 13:59N 44°24' E 008°53'0 0.0
2017-Oct-18 13:29N 44°24' E 008°53'0 0.0
2017-Oct-18 12:59N 44°24' E 008°53'0 0.0
2017-Oct-18 12:29N 44°24' E 008°53'0 0.0
2017-Oct-18 11:59N 44°24' E 008°53'0 0.0
2017-Oct-18 11:29N 44°24' E 008°53'0 0.2
2017-Oct-18 11:00N 44°24' E 008°53'2 4.4
2017-Oct-18 10:30N 44°24' E 008°56'2 4.3
2017-Oct-18 10:00N 44°22' E 008°58'714.3
2017-Oct-18 09:30N 44°15' E 009°02'816.9
2017-Oct-18 09:00N 44°07' E 009°06'816.9
2017-Oct-18 08:30N 43°59' E 009°09'917.1
2017-Oct-18 08:00N 43°51' E 009°13'917.1
2017-Oct-18 07:30N 43°43' E 009°17'917.5
2017-Oct-18 07:00N 43°35' E 009°21'917.2
2017-Oct-18 06:30N 43°27' E 009°25'917.0
2017-Oct-18 05:57N 43°18' E 009°30'817.1
2017-Oct-18 05:30N 43°11' E 009°34'816.9
2017-Oct-18 05:00N 43°03' E 009°37'1016.8
2017-Oct-18 04:26N 42°54' E 009°42'716.3
2017-Oct-18 04:00N 42°49' E 009°49'916.9
2017-Oct-18 03:30N 42°44' E 009°59'1617.0
2017-Oct-18 02:34N 42°35' E 010°16'216.8
2017-Oct-18 02:26N 42°34' E 010°19'717.0
2017-Oct-18 02:00N 42°29' E 010°26'817.0
2017-Oct-18 01:30N 42°24' E 010°35'917.2
2017-Oct-18 01:00N 42°19' E 010°45'917.5
2017-Oct-18 00:30N 42°13' E 010°54'917.4
2017-Oct-18 00:00N 42°08' E 011°03'917.3
2017-Oct-17 23:30N 42°03' E 011°13'917.1
2017-Oct-17 23:00N 41°58' E 011°22'4417.1
2017-Oct-17 20:26N 41°33' E 012°11'6717.1
2017-Oct-17 16:32N 40°55' E 013°23'117.1
2017-Oct-17 16:27N 40°54' E 013°25'817.1
2017-Oct-17 16:00N 40°50' E 013°33'917.1
2017-Oct-17 15:30N 40°44' E 013°42'917.1
2017-Oct-17 15:00N 40°39' E 013°51'816.9
2017-Oct-17 14:30N 40°35' E 014°01'917.1
2017-Oct-17 14:00N 40°31' E 014°11'816.8
2017-Oct-17 13:30N 40°32' E 014°22'816.5
2017-Oct-17 13:00N 40°35' E 014°32'131 8.2
2017-Oct-16 21:00N 38°31' E 013°37'917.4
2017-Oct-16 20:31N 38°23' E 013°33'917.4
2017-Oct-16 20:00N 38°15' E 013°28'816.2
2017-Oct-16 19:30N 38°07' E 013°24'2 1.1
2017-Oct-16 18:07N 38°08' E 013°22'0 0.0
2017-Oct-16 17:04N 38°08' E 013°22'0 0.0
2017-Oct-16 16:52N 38°08' E 013°22'0 0.0
2017-Oct-16 15:22N 38°08' E 013°22'0 0.0
2017-Oct-16 14:52N 38°08' E 013°22'0 0.0
2017-Oct-16 13:58N 38°08' E 013°22'0 0.0
2017-Oct-16 13:28N 38°08' E 013°22'0 0.0
2017-Oct-16 12:58N 38°08' E 013°22'0 0.0
2017-Oct-16 12:28N 38°08' E 013°22'0 0.0
2017-Oct-16 11:58N 38°08' E 013°22'0 0.0
2017-Oct-16 11:28N 38°08' E 013°22'0 0.0
2017-Oct-16 10:58N 38°08' E 013°22'0 0.0
2017-Oct-16 10:28N 38°08' E 013°22'0 0.0
2017-Oct-16 09:58N 38°08' E 013°22'0 0.0
2017-Oct-16 09:28N 38°08' E 013°22'0 0.0
2017-Oct-16 08:58N 38°08' E 013°22'0 0.0
2017-Oct-16 08:28N 38°08' E 013°22'0 0.0
2017-Oct-16 07:58N 38°08' E 013°22'0 0.0
2017-Oct-16 07:28N 38°08' E 013°22'0 0.0
2017-Oct-16 06:58N 38°08' E 013°22'0 0.0
2017-Oct-16 06:28N 38°08' E 013°22'0 0.0
2017-Oct-16 05:58N 38°08' E 013°22'0 0.0
2017-Oct-16 05:28N 38°08' E 013°22'0 0.2
2017-Oct-16 05:00N 38°08' E 013°22'1 3.0
2017-Oct-16 04:30N 38°08' E 013°24'2 3.7
2017-Oct-16 04:00N 38°10' E 013°24'510.5
2017-Oct-16 03:31N 38°15' E 013°25'714.3
2017-Oct-16 03:00N 38°21' E 013°19'714.8
2017-Oct-16 02:30N 38°26' E 013°13'815.0
2017-Oct-16 02:00N 38°32' E 013°07'815.2
2017-Oct-16 01:30N 38°38' E 013°01'815.6
2017-Oct-16 00:59N 38°45' E 012°55'715.3
2017-Oct-16 00:30N 38°51' E 012°50'815.2
2017-Oct-15 23:58N 38°58' E 012°44'715.3
2017-Oct-15 23:30N 39°04' E 012°39'815.3
2017-Oct-15 22:58N 39°11' E 012°33'715.2
2017-Oct-15 22:30N 39°17' E 012°28'1115.2
2017-Oct-15 21:45N 39°26' E 012°20'415.4
2017-Oct-15 21:30N 39°29' E 012°18'815.2
2017-Oct-15 20:57N 39°37' E 012°12'914.8
2017-Oct-15 20:22N 39°44' E 012°06'614.4
2017-Oct-15 19:55N 39°50' E 012°02'2714.6
2017-Oct-15 18:03N 40°13' E 011°44'114.6
2017-Oct-15 18:00N 40°14' E 011°44'714.7
2017-Oct-15 17:30N 40°20' E 011°39'715.0
2017-Oct-15 17:00N 40°27' E 011°35'815.3
2017-Oct-15 16:29N 40°34' E 011°30'3915.4
2017-Oct-15 13:57N 41°07' E 011°03'715.7
2017-Oct-15 13:30N 41°13' E 010°58'815.7
2017-Oct-15 13:00N 41°20' E 010°52'815.5
2017-Oct-15 12:30N 41°26' E 010°47'815.5
2017-Oct-15 12:00N 41°33' E 010°41'815.6
2017-Oct-15 11:29N 41°40' E 010°35'2415.6
2017-Oct-15 09:58N 41°59' E 010°18'715.6
2017-Oct-15 09:30N 42°05' E 010°13'815.8
2017-Oct-15 09:00N 42°12' E 010°07'815.8
2017-Oct-15 08:30N 42°19' E 010°02'816.0
2017-Oct-15 07:59N 42°26' E 009°56'1015.8
2017-Oct-15 07:21N 42°35' E 009°49'1515.7
2017-Oct-15 06:22N 42°49' E 009°40'1115.9
2017-Oct-15 05:41N 42°59' E 009°35'615.8
2017-Oct-15 05:18N 43°05' E 009°33'715.7
2017-Oct-15 04:51N 43°12' E 009°30'515.8
2017-Oct-15 04:30N 43°17' E 009°28'815.5
2017-Oct-15 04:00N 43°24' E 009°24'815.5
2017-Oct-15 03:30N 43°31' E 009°21'815.4
2017-Oct-15 03:00N 43°39' E 009°18'815.6
2017-Oct-15 02:30N 43°46' E 009°14'815.6
2017-Oct-15 02:00N 43°54' E 009°11'815.7
2017-Oct-15 01:30N 44°01' E 009°07'815.6
2017-Oct-15 01:00N 44°08' E 009°03'815.6
2017-Oct-15 00:30N 44°16' E 008°60'815.4
2017-Oct-15 00:00N 44°23' E 008°57'3 5.8
2017-Oct-14 23:30N 44°24' E 008°53'0 0.0
2017-Oct-14 22:59N 44°24' E 008°53'0 0.0
2017-Oct-14 22:29N 44°24' E 008°53'0 0.0
2017-Oct-14 21:59N 44°24' E 008°53'0 0.0
2017-Oct-14 21:29N 44°24' E 008°53'0 0.0
2017-Oct-14 20:59N 44°24' E 008°53'0 0.0
2017-Oct-14 20:29N 44°24' E 008°53'0 0.0
2017-Oct-14 19:59N 44°24' E 008°53'0 0.0
2017-Oct-14 19:29N 44°24' E 008°53'0 0.0
2017-Oct-14 18:59N 44°24' E 008°53'0 0.4
2017-Oct-14 18:31N 44°24' E 008°53'3 6.0
2017-Oct-14 18:00N 44°23' E 008°57'611.4
2017-Oct-14 17:31N 44°18' E 009°00'917.0
2017-Oct-14 17:00N 44°10' E 009°04'816.8
2017-Oct-14 16:31N 44°02' E 009°08'916.9
2017-Oct-14 15:59N 43°54' E 009°12'816.7
2017-Oct-14 15:31N 43°46' E 009°16'816.8
2017-Oct-14 15:01N 43°38' E 009°20'816.8
2017-Oct-14 14:31N 43°31' E 009°24'917.3
2017-Oct-14 14:00N 43°22' E 009°29'917.1
2017-Oct-14 13:31N 43°14' E 009°32'816.8
2017-Oct-14 13:01N 43°06' E 009°36'2116.3
2017-Oct-14 11:42N 42°46' E 009°46'416.6
2017-Oct-14 11:27N 42°42' E 009°48'2516.4
2017-Oct-14 09:56N 42°20' E 010°01'1316.7
2017-Oct-14 09:08N 42°08' E 010°10'2716.6
2017-Oct-14 07:29N 41°45' E 010°30'1116.6
2017-Oct-14 06:49N 41°35' E 010°38'20216.7
2017-Oct-13 18:44N 38°44' E 012°58'616.6
2017-Oct-13 18:23N 38°39' E 013°02'616.5
2017-Oct-13 18:01N 38°34' E 013°06'816.5
2017-Oct-13 17:30N 38°27' E 013°12'816.6
2017-Oct-13 17:01N 38°21' E 013°18'816.9
2017-Oct-13 16:31N 38°13' E 013°24'611.7
2017-Oct-13 16:00N 38°07' E 013°23'1 1.3
2017-Oct-13 15:30N 38°08' E 013°22'0 0.0
2017-Oct-13 14:57N 38°08' E 013°22'0 0.0
2017-Oct-13 14:30N 38°08' E 013°22'0 0.0
2017-Oct-13 14:00N 38°08' E 013°22'0 0.0
2017-Oct-13 13:27N 38°08' E 013°22'0 0.0
2017-Oct-13 13:00N 38°08' E 013°22'0 0.0
2017-Oct-13 12:30N 38°08' E 013°22'0 0.0
2017-Oct-13 12:00N 38°08' E 013°22'0 0.0
2017-Oct-13 11:30N 38°08' E 013°22'0 0.0
2017-Oct-13 11:00N 38°08' E 013°22'0 0.5
2017-Oct-13 10:31N 38°08' E 013°22'4 7.3
2017-Oct-13 10:00N 38°11' E 013°25'815.1
2017-Oct-13 09:30N 38°18' E 013°29'816.5
2017-Oct-13 09:00N 38°25' E 013°32'816.3
2017-Oct-13 08:30N 38°33' E 013°36'1016.3
2017-Oct-13 07:55N 38°42' E 013°41'123 9.4
2017-Oct-12 18:51N 40°36' E 014°39'916.7
2017-Oct-12 18:20N 40°34' E 014°28'616.5
2017-Oct-12 18:00N 40°33' E 014°21'1015.9
2017-Oct-12 17:23N 40°32' E 014°08'616.7
2017-Oct-12 17:00N 40°35' E 014°01'916.8
2017-Oct-12 16:30N 40°39' E 013°51'19816.5
2017-Oct-12 04:32N 42°34' E 010°16'116.3
2017-Oct-12 04:30N 42°34' E 010°15'2216.4
2017-Oct-12 03:08N 42°47' E 009°50'2315.6
2017-Oct-12 01:38N 43°07' E 009°33'216.4
2017-Oct-12 01:31N 43°09' E 009°32'816.3
2017-Oct-12 01:01N 43°17' E 009°29'816.3
2017-Oct-12 00:30N 43°24' E 009°25'816.2
2017-Oct-11 23:59N 43°32' E 009°21'816.5
2017-Oct-11 23:30N 43°40' E 009°17'816.4
2017-Oct-11 23:00N 43°48' E 009°14'816.1
2017-Oct-11 22:30N 43°55' E 009°10'816.1
2017-Oct-11 22:00N 44°03' E 009°06'816.5
2017-Oct-11 21:30N 44°11' E 009°02'816.6
2017-Oct-11 21:00N 44°18' E 008°59'612.0
2017-Oct-11 20:30N 44°24' E 008°55'2 3.0
2017-Oct-11 19:59N 44°24' E 008°53'0 0.0
2017-Oct-11 19:26N 44°24' E 008°53'0 0.0
2017-Oct-11 18:59N 44°24' E 008°53'0 0.0
2017-Oct-11 18:26N 44°24' E 008°53'0 0.0
2017-Oct-11 17:56N 44°24' E 008°53'0 0.0
2017-Oct-11 17:29N 44°24' E 008°53'0 0.0
2017-Oct-11 16:59N 44°24' E 008°53'30812.3
2017-Oct-10 15:57N 40°43' E 013°44'916.6
2017-Oct-10 15:25N 40°38' E 013°54'716.5
2017-Oct-10 15:01N 40°35' E 014°02'1715.8
2017-Oct-10 13:58N 40°33' E 014°23'107 6.8
2017-Oct-09 22:13N 38°50' E 013°48'616.4
2017-Oct-09 21:52N 38°45' E 013°45'616.5
2017-Oct-09 21:30N 38°39' E 013°42'816.7
2017-Oct-09 21:01N 38°31' E 013°38'816.7
2017-Oct-09 20:31N 38°24' E 013°34'816.5
2017-Oct-09 20:01N 38°16' E 013°29'816.3
2017-Oct-09 19:31N 38°09' E 013°25'3 5.4
2017-Oct-09 19:00N 38°08' E 013°22'0 0.0
2017-Oct-09 18:30N 38°08' E 013°22'0 0.0
2017-Oct-09 18:00N 38°08' E 013°22'0 0.0
2017-Oct-09 17:30N 38°08' E 013°22'0 0.0
2017-Oct-09 17:00N 38°08' E 013°22'0 0.0
2017-Oct-09 16:30N 38°08' E 013°22'0 0.0
2017-Oct-09 16:00N 38°08' E 013°22'0 0.0
2017-Oct-09 15:30N 38°08' E 013°22'0 0.0
2017-Oct-09 15:00N 38°08' E 013°22'0 0.0
2017-Oct-09 14:30N 38°08' E 013°22'0 0.0
2017-Oct-09 14:00N 38°08' E 013°22'0 0.0
2017-Oct-09 13:30N 38°08' E 013°22'0 0.0
2017-Oct-09 13:00N 38°08' E 013°22'0 0.0
2017-Oct-09 12:30N 38°08' E 013°22'0 0.0
2017-Oct-09 12:00N 38°08' E 013°22'0 0.0
2017-Oct-09 11:30N 38°08' E 013°22'0 0.0
2017-Oct-09 11:00N 38°08' E 013°22'0 0.0
2017-Oct-09 10:30N 38°08' E 013°22'0 0.0
2017-Oct-09 10:00N 38°08' E 013°22'0 0.0
2017-Oct-09 09:30N 38°08' E 013°22'0 0.0
2017-Oct-09 09:00N 38°08' E 013°22'0 0.0
2017-Oct-09 08:24N 38°08' E 013°22'0 0.0
2017-Oct-09 07:48N 38°08' E 013°22'0 0.0
2017-Oct-09 07:24N 38°08' E 013°22'0 0.0
2017-Oct-09 06:54N 38°08' E 013°22'0 0.0
2017-Oct-09 06:24N 38°08' E 013°22'0 0.0
2017-Oct-09 05:54N 38°08' E 013°22'0 0.0
2017-Oct-09 05:30N 38°08' E 013°22'0 0.6
2017-Oct-09 05:00N 38°08' E 013°22'1 2.7
2017-Oct-09 04:30N 38°08' E 013°24'611.5
2017-Oct-09 04:00N 38°14' E 013°26'714.6
2017-Oct-09 03:30N 38°21' E 013°29'814.8
2017-Oct-09 02:59N 38°25' E 013°21'  
Track history (hours):
 
Tides and Currents Weather Stations Pressure Air Temp Water Temp Dewpoint Dewpoint Depression Visibility Wind Speed Wind Dir Waves Ship Positions

Eurocargo Salerno

Last reported at 2017-Oct-18 22:30 UTC. Time now 2017-Oct-18 22:42 UTC.
Position N 43°54' E 009°10'.

Length 195 m; draft 6.1 m.

Type: Cargo ship. MMSI: 229706000.

Date/timePositionNaut miles runAvg speedWind from/ knotsBaromVisibWave heightAir tempDewpointWater temp
2017-Oct-18 22:30N 43°54' E 009°10'816.6
2017-Oct-18 22:00N 44°02' E 009°06'816.9
2017-Oct-18 21:30N 44°10' E 009°02'816.9
2017-Oct-18 21:00N 44°18' E 008°59'713.0
2017-Oct-18 20:30N 44°24' E 008°55'2 3.0
2017-Oct-18 19:58N 44°24' E 008°53'0 0.0
2017-Oct-18 19:28N 44°24' E 008°53'0 0.0
2017-Oct-18 18:58N 44°24' E 008°53'0 0.0
2017-Oct-18 18:28N 44°24' E 008°53'0 0.0
2017-Oct-18 17:58N 44°24' E 008°53'0 0.0
2017-Oct-18 17:28N 44°24' E 008°53'0 0.0
2017-Oct-18 16:58N 44°24' E 008°53'0 0.1
2017-Oct-18 16:29N 44°24' E 008°53'0 0.1
2017-Oct-18 15:59N 44°24' E 008°53'0 0.0
2017-Oct-18 15:29N 44°24' E 008°53'0 0.0
2017-Oct-18 14:59N 44°24' E 008°53'0 0.0
2017-Oct-18 13:59N 44°24' E 008°53'0 0.0
2017-Oct-18 13:29N 44°24' E 008°53'0 0.0
2017-Oct-18 12:59N 44°24' E 008°53'0 0.0
2017-Oct-18 12:29N 44°24' E 008°53'0 0.0
2017-Oct-18 11:59N 44°24' E 008°53'0 0.0
2017-Oct-18 11:29N 44°24' E 008°53'0 0.2
2017-Oct-18 11:00N 44°24' E 008°53'2 4.4
2017-Oct-18 10:30N 44°24' E 008°56'2 4.3
2017-Oct-18 10:00N 44°22' E 008°58'714.3
2017-Oct-18 09:30N 44°15' E 009°02'816.9
2017-Oct-18 09:00N 44°07' E 009°06'816.9
2017-Oct-18 08:30N 43°59' E 009°09'917.1
2017-Oct-18 08:00N 43°51' E 009°13'917.1
2017-Oct-18 07:30N 43°43' E 009°17'917.5
2017-Oct-18 07:00N 43°35' E 009°21'917.2
2017-Oct-18 06:30N 43°27' E 009°25'917.0
2017-Oct-18 05:57N 43°18' E 009°30'817.1
2017-Oct-18 05:30N 43°11' E 009°34'816.9
2017-Oct-18 05:00N 43°03' E 009°37'1016.8
2017-Oct-18 04:26N 42°54' E 009°42'716.3
2017-Oct-18 04:00N 42°49' E 009°49'916.9
2017-Oct-18 03:30N 42°44' E 009°59'1617.0
2017-Oct-18 02:34N 42°35' E 010°16'216.8
2017-Oct-18 02:26N 42°34' E 010°19'717.0
2017-Oct-18 02:00N 42°29' E 010°26'817.0
2017-Oct-18 01:30N 42°24' E 010°35'917.2
2017-Oct-18 01:00N 42°19' E 010°45'917.5
2017-Oct-18 00:30N 42°13' E 010°54'917.4
2017-Oct-18 00:00N 42°08' E 011°03'917.3
2017-Oct-17 23:30N 42°03' E 011°13'917.1
2017-Oct-17 23:00N 41°58' E 011°22'4417.1
2017-Oct-17 20:26N 41°33' E 012°11'6717.1
2017-Oct-17 16:32N 40°55' E 013°23'117.1
2017-Oct-17 16:27N 40°54' E 013°25'817.1
2017-Oct-17 16:00N 40°50' E 013°33'917.1
2017-Oct-17 15:30N 40°44' E 013°42'917.1
2017-Oct-17 15:00N 40°39' E 013°51'816.9
2017-Oct-17 14:30N 40°35' E 014°01'917.1
2017-Oct-17 14:00N 40°31' E 014°11'816.8
2017-Oct-17 13:30N 40°32' E 014°22'816.5
2017-Oct-17 13:00N 40°35' E 014°32'131 8.2
2017-Oct-16 21:00N 38°31' E 013°37'917.4
2017-Oct-16 20:31N 38°23' E 013°33'917.4
2017-Oct-16 20:00N 38°15' E 013°28'816.2
2017-Oct-16 19:30N 38°07' E 013°24'2 1.1
2017-Oct-16 18:07N 38°08' E 013°22'0 0.0
2017-Oct-16 17:04N 38°08' E 013°22'0 0.0
2017-Oct-16 16:52N 38°08' E 013°22'0 0.0
2017-Oct-16 15:22N 38°08' E 013°22'0 0.0
2017-Oct-16 14:52N 38°08' E 013°22'0 0.0
2017-Oct-16 13:58N 38°08' E 013°22'0 0.0
2017-Oct-16 13:28N 38°08' E 013°22'0 0.0
2017-Oct-16 12:58N 38°08' E 013°22'0 0.0
2017-Oct-16 12:28N 38°08' E 013°22'0 0.0
2017-Oct-16 11:58N 38°08' E 013°22'0 0.0
2017-Oct-16 11:28N 38°08' E 013°22'0 0.0
2017-Oct-16 10:58N 38°08' E 013°22'0 0.0
2017-Oct-16 10:28N 38°08' E 013°22'0 0.0
2017-Oct-16 09:58N 38°08' E 013°22'0 0.0
2017-Oct-16 09:28N 38°08' E 013°22'0 0.0
2017-Oct-16 08:58N 38°08' E 013°22'0 0.0
2017-Oct-16 08:28N 38°08' E 013°22'0 0.0
2017-Oct-16 07:58N 38°08' E 013°22'0 0.0
2017-Oct-16 07:28N 38°08' E 013°22'0 0.0
2017-Oct-16 06:58N 38°08' E 013°22'0 0.0
2017-Oct-16 06:28N 38°08' E 013°22'0 0.0
2017-Oct-16 05:58N 38°08' E 013°22'0 0.0
2017-Oct-16 05:28N 38°08' E 013°22'0 0.2
2017-Oct-16 05:00N 38°08' E 013°22'1 3.0
2017-Oct-16 04:30N 38°08' E 013°24'2 3.7
2017-Oct-16 04:00N 38°10' E 013°24'510.5
2017-Oct-16 03:31N 38°15' E 013°25'714.3
2017-Oct-16 03:00N 38°21' E 013°19'714.8
2017-Oct-16 02:30N 38°26' E 013°13'815.0
2017-Oct-16 02:00N 38°32' E 013°07'815.2
2017-Oct-16 01:30N 38°38' E 013°01'815.6
2017-Oct-16 00:59N 38°45' E 012°55'715.3
2017-Oct-16 00:30N 38°51' E 012°50'815.2
2017-Oct-15 23:58N 38°58' E 012°44'715.3
2017-Oct-15 23:30N 39°04' E 012°39'815.3
2017-Oct-15 22:58N 39°11' E 012°33'715.2
2017-Oct-15 22:30N 39°17' E 012°28'1115.2
2017-Oct-15 21:45N 39°26' E 012°20'415.4
2017-Oct-15 21:30N 39°29' E 012°18'815.2
2017-Oct-15 20:57N 39°37' E 012°12'914.8
2017-Oct-15 20:22N 39°44' E 012°06'614.4
2017-Oct-15 19:55N 39°50' E 012°02'2714.6
2017-Oct-15 18:03N 40°13' E 011°44'114.6
2017-Oct-15 18:00N 40°14' E 011°44'714.7
2017-Oct-15 17:30N 40°20' E 011°39'715.0
2017-Oct-15 17:00N 40°27' E 011°35'815.3
2017-Oct-15 16:29N 40°34' E 011°30'3915.4
2017-Oct-15 13:57N 41°07' E 011°03'715.7
2017-Oct-15 13:30N 41°13' E 010°58'815.7
2017-Oct-15 13:00N 41°20' E 010°52'815.5
2017-Oct-15 12:30N 41°26' E 010°47'815.5
2017-Oct-15 12:00N 41°33' E 010°41'815.6
2017-Oct-15 11:29N 41°40' E 010°35'2415.6
2017-Oct-15 09:58N 41°59' E 010°18'715.6
2017-Oct-15 09:30N 42°05' E 010°13'815.8
2017-Oct-15 09:00N 42°12' E 010°07'815.8
2017-Oct-15 08:30N 42°19' E 010°02'816.0
2017-Oct-15 07:59N 42°26' E 009°56'1015.8
2017-Oct-15 07:21N 42°35' E 009°49'1515.7
2017-Oct-15 06:22N 42°49' E 009°40'1115.9
2017-Oct-15 05:41N 42°59' E 009°35'615.8
2017-Oct-15 05:18N 43°05' E 009°33'715.7
2017-Oct-15 04:51N 43°12' E 009°30'515.8
2017-Oct-15 04:30N 43°17' E 009°28'815.5
2017-Oct-15 04:00N 43°24' E 009°24'815.5
2017-Oct-15 03:30N 43°31' E 009°21'815.4
2017-Oct-15 03:00N 43°39' E 009°18'815.6
2017-Oct-15 02:30N 43°46' E 009°14'815.6
2017-Oct-15 02:00N 43°54' E 009°11'815.7
2017-Oct-15 01:30N 44°01' E 009°07'815.6
2017-Oct-15 01:00N 44°08' E 009°03'815.6
2017-Oct-15 00:30N 44°16' E 008°60'815.4
2017-Oct-15 00:00N 44°23' E 008°57'3 5.8
2017-Oct-14 23:30N 44°24' E 008°53'0 0.0
2017-Oct-14 22:59N 44°24' E 008°53'0 0.0
2017-Oct-14 22:29N 44°24' E 008°53'0 0.0
2017-Oct-14 21:59N 44°24' E 008°53'0 0.0
2017-Oct-14 21:29N 44°24' E 008°53'0 0.0
2017-Oct-14 20:59N 44°24' E 008°53'0 0.0
2017-Oct-14 20:29N 44°24' E 008°53'0 0.0
2017-Oct-14 19:59N 44°24' E 008°53'0 0.0
2017-Oct-14 19:29N 44°24' E 008°53'0 0.0
2017-Oct-14 18:59N 44°24' E 008°53'0 0.4
2017-Oct-14 18:31N 44°24' E 008°53'3 6.0
2017-Oct-14 18:00N 44°23' E 008°57'611.4
2017-Oct-14 17:31N 44°18' E 009°00'917.0
2017-Oct-14 17:00N 44°10' E 009°04'816.8
2017-Oct-14 16:31N 44°02' E 009°08'916.9
2017-Oct-14 15:59N 43°54' E 009°12'816.7
2017-Oct-14 15:31N 43°46' E 009°16'816.8
2017-Oct-14 15:01N 43°38' E 009°20'816.8
2017-Oct-14 14:31N 43°31' E 009°24'917.3
2017-Oct-14 14:00N 43°22' E 009°29'917.1
2017-Oct-14 13:31N 43°14' E 009°32'816.8
2017-Oct-14 13:01N 43°06' E 009°36'2116.3
2017-Oct-14 11:42N 42°46' E 009°46'416.6
2017-Oct-14 11:27N 42°42' E 009°48'2516.4
2017-Oct-14 09:56N 42°20' E 010°01'1316.7
2017-Oct-14 09:08N 42°08' E 010°10'2716.6
2017-Oct-14 07:29N 41°45' E 010°30'1116.6
2017-Oct-14 06:49N 41°35' E 010°38'20216.7
2017-Oct-13 18:44N 38°44' E 012°58'616.6
2017-Oct-13 18:23N 38°39' E 013°02'616.5
2017-Oct-13 18:01N 38°34' E 013°06'816.5
2017-Oct-13 17:30N 38°27' E 013°12'816.6
2017-Oct-13 17:01N 38°21' E 013°18'816.9
2017-Oct-13 16:31N 38°13' E 013°24'611.7
2017-Oct-13 16:00N 38°07' E 013°23'1 1.3
2017-Oct-13 15:30N 38°08' E 013°22'0 0.0
2017-Oct-13 14:57N 38°08' E 013°22'0 0.0
2017-Oct-13 14:30N 38°08' E 013°22'0 0.0
2017-Oct-13 14:00N 38°08' E 013°22'0 0.0
2017-Oct-13 13:27N 38°08' E 013°22'0 0.0
2017-Oct-13 13:00N 38°08' E 013°22'0 0.0
2017-Oct-13 12:30N 38°08' E 013°22'0 0.0
2017-Oct-13 12:00N 38°08' E 013°22'0 0.0
2017-Oct-13 11:30N 38°08' E 013°22'0 0.0
2017-Oct-13 11:00N 38°08' E 013°22'0 0.5
2017-Oct-13 10:31N 38°08' E 013°22'4 7.3
2017-Oct-13 10:00N 38°11' E 013°25'815.1
2017-Oct-13 09:30N 38°18' E 013°29'816.5
2017-Oct-13 09:00N 38°25' E 013°32'816.3
2017-Oct-13 08:30N 38°33' E 013°36'1016.3
2017-Oct-13 07:55N 38°42' E 013°41'123 9.4
2017-Oct-12 18:51N 40°36' E 014°39'916.7
2017-Oct-12 18:20N 40°34' E 014°28'616.5
2017-Oct-12 18:00N 40°33' E 014°21'1015.9
2017-Oct-12 17:23N 40°32' E 014°08'616.7
2017-Oct-12 17:00N 40°35' E 014°01'916.8
2017-Oct-12 16:30N 40°39' E 013°51'19816.5
2017-Oct-12 04:32N 42°34' E 010°16'116.3
2017-Oct-12 04:30N 42°34' E 010°15'2216.4
2017-Oct-12 03:08N 42°47' E 009°50'2315.6
2017-Oct-12 01:38N 43°07' E 009°33'216.4
2017-Oct-12 01:31N 43°09' E 009°32'816.3
2017-Oct-12 01:01N 43°17' E 009°29'816.3
2017-Oct-12 00:30N 43°24' E 009°25'816.2
2017-Oct-11 23:59N 43°32' E 009°21'816.5
2017-Oct-11 23:30N 43°40' E 009°17'816.4
2017-Oct-11 23:00N 43°48' E 009°14'816.1
2017-Oct-11 22:30N 43°55' E 009°10'816.1
2017-Oct-11 22:00N 44°03' E 009°06'816.5
2017-Oct-11 21:30N 44°11' E 009°02'816.6
2017-Oct-11 21:00N 44°18' E 008°59'612.0
2017-Oct-11 20:30N 44°24' E 008°55'2 3.0
2017-Oct-11 19:59N 44°24' E 008°53'0 0.0
2017-Oct-11 19:26N 44°24' E 008°53'0 0.0
2017-Oct-11 18:59N 44°24' E 008°53'0 0.0
2017-Oct-11 18:26N 44°24' E 008°53'0 0.0
2017-Oct-11 17:56N 44°24' E 008°53'0 0.0
2017-Oct-11 17:29N 44°24' E 008°53'0 0.0
2017-Oct-11 16:59N 44°24' E 008°53'30812.3
2017-Oct-10 15:57N 40°43' E 013°44'916.6
2017-Oct-10 15:25N 40°38' E 013°54'716.5
2017-Oct-10 15:01N 40°35' E 014°02'1715.8
2017-Oct-10 13:58N 40°33' E 014°23'107 6.8
2017-Oct-09 22:13N 38°50' E 013°48'616.4
2017-Oct-09 21:52N 38°45' E 013°45'616.5
2017-Oct-09 21:30N 38°39' E 013°42'816.7
2017-Oct-09 21:01N 38°31' E 013°38'816.7
2017-Oct-09 20:31N 38°24' E 013°34'816.5
2017-Oct-09 20:01N 38°16' E 013°29'816.3
2017-Oct-09 19:31N 38°09' E 013°25'3 5.4
2017-Oct-09 19:00N 38°08' E 013°22'0 0.0
2017-Oct-09 18:30N 38°08' E 013°22'0 0.0
2017-Oct-09 18:00N 38°08' E 013°22'0 0.0
2017-Oct-09 17:30N 38°08' E 013°22'0 0.0
2017-Oct-09 17:00N 38°08' E 013°22'0 0.0
2017-Oct-09 16:30N 38°08' E 013°22'0 0.0
2017-Oct-09 16:00N 38°08' E 013°22'0 0.0
2017-Oct-09 15:30N 38°08' E 013°22'0 0.0
2017-Oct-09 15:00N 38°08' E 013°22'0 0.0
2017-Oct-09 14:30N 38°08' E 013°22'0 0.0
2017-Oct-09 14:00N 38°08' E 013°22'0 0.0
2017-Oct-09 13:30N 38°08' E 013°22'0 0.0
2017-Oct-09 13:00N 38°08' E 013°22'0 0.0
2017-Oct-09 12:30N 38°08' E 013°22'0 0.0
2017-Oct-09 12:00N 38°08' E 013°22'0 0.0
2017-Oct-09 11:30N 38°08' E 013°22'0 0.0
2017-Oct-09 11:00N 38°08' E 013°22'0 0.0
2017-Oct-09 10:30N 38°08' E 013°22'0 0.0
2017-Oct-09 10:00N 38°08' E 013°22'0 0.0
2017-Oct-09 09:30N 38°08' E 013°22'0 0.0
2017-Oct-09 09:00N 38°08' E 013°22'0 0.0
2017-Oct-09 08:24N 38°08' E 013°22'0 0.0
2017-Oct-09 07:48N 38°08' E 013°22'0 0.0
2017-Oct-09 07:24N 38°08' E 013°22'0 0.0
2017-Oct-09 06:54N 38°08' E 013°22'0 0.0
2017-Oct-09 06:24N 38°08' E 013°22'0 0.0
2017-Oct-09 05:54N 38°08' E 013°22'0 0.0
2017-Oct-09 05:30N 38°08' E 013°22'0 0.6
2017-Oct-09 05:00N 38°08' E 013°22'1 2.7
2017-Oct-09 04:30N 38°08' E 013°24'611.5
2017-Oct-09 04:00N 38°14' E 013°26'714.6
2017-Oct-09 03:30N 38°21' E 013°29'814.8
2017-Oct-09 02:59N 38°25' E 013°21'  

Dump ship's entire track history